KFRH/FRH METAR and TAF weather

Enter ICAO airport designator
Station Type Date Time Source
KFRH METAR 2019/12/12 09:15 UTC NOAA

KFRH 120915Z AUTO 13003KT 10SM CLR M02/M06 A3050 RMK AO1


Station Type Date Time Source
KFRH Decoded METAR 2019/12/12 09:15 UTC NOAA

Station name not available
Dec 12, 2019 - 04:15 AM EST / 2019.12.12 0915 UTC
Wind: from the SE (130 degrees) at 3 MPH (3 KT):0
Visibility: 10 mile(s):0
Sky conditions: clear
Temperature: 28 F (-2 C)
Dew Point: 21 F (-6 C)
Relative Humidity: 74%
Pressure (altimeter): 30.5 in. Hg (1032 hPa)
ob: KFRH 120915Z AUTO 13003KT 10SM CLR M02/M06 A3050 RMK AO1
cycle: 9

Station Type Date Time Source
KFRH TAF UTC NOAA

Error!

Example: see airport list